createdAt,value
2018-08-03T00:01:22.844Z,20.17
2018-08-03T00:06:27.991Z,20.22
2018-08-03T00:11:32.863Z,20.44
2018-08-03T00:14:01.929Z,20.42
2018-08-03T00:16:30.982Z,20.43
2018-08-03T00:19:00.050Z,20.53
2018-08-03T00:21:29.121Z,20.45
2018-08-03T00:23:58.196Z,20.40
2018-08-03T00:26:27.236Z,20.26
2018-08-03T00:28:56.303Z,20.28
2018-08-03T00:31:25.361Z,20.21
2018-08-03T00:33:54.430Z,20.26
2018-08-03T00:36:23.534Z,20.04
2018-08-03T00:38:52.600Z,20.05
2018-08-03T00:41:22.645Z,19.94
2018-08-03T00:43:51.873Z,19.78
2018-08-03T00:46:20.947Z,19.58
2018-08-03T00:48:50.037Z,19.49
2018-08-03T00:51:20.090Z,19.17
2018-08-03T00:53:49.177Z,19.16
2018-08-03T00:58:54.163Z,19.34
2018-08-03T01:01:23.285Z,19.49
2018-08-03T01:03:52.343Z,19.62
2018-08-03T01:06:21.512Z,19.56
2018-08-03T01:08:50.543Z,19.53
2018-08-03T01:11:19.725Z,19.47
2018-08-03T01:13:48.836Z,19.45
2018-08-03T01:16:17.899Z,19.43
2018-08-03T01:18:46.952Z,19.51
2018-08-03T01:21:16.040Z,19.50
2018-08-03T01:26:20.889Z,19.46
2018-08-03T01:28:50.029Z,19.52
2018-08-03T01:31:19.073Z,19.52
2018-08-03T01:33:48.138Z,19.46
2018-08-03T01:36:18.186Z,19.28
2018-08-03T01:38:48.214Z,19.27
2018-08-03T01:41:17.288Z,19.34
2018-08-03T01:43:46.325Z,19.40
2018-08-03T01:48:51.268Z,19.42
2018-08-03T01:51:20.330Z,19.41
2018-08-03T01:53:49.378Z,19.43
2018-08-03T02:01:30.094Z,19.35
2018-08-03T02:03:59.158Z,19.15
2018-08-03T02:06:29.199Z,19.16
2018-08-03T02:08:58.239Z,18.78
2018-08-03T02:14:08.562Z,18.73
2018-08-03T02:16:37.630Z,18.74
2018-08-03T02:19:06.690Z,18.79
2018-08-03T02:21:35.761Z,18.78
2018-08-03T02:24:04.821Z,18.82
2018-08-03T02:26:33.895Z,18.82
2018-08-03T02:29:02.959Z,18.79
2018-08-03T02:31:32.023Z,18.77
2018-08-03T02:34:02.068Z,18.85
2018-08-03T02:36:31.149Z,19.00
2018-08-03T02:41:36.015Z,18.93
2018-08-03T02:46:41.917Z,18.91
2018-08-03T02:51:46.771Z,18.98
2018-08-03T02:56:51.532Z,18.98
2018-08-03T02:59:20.598Z,18.94
2018-08-03T03:01:49.646Z,18.91
2018-08-03T03:04:18.716Z,18.88
2018-08-03T03:09:24.603Z,18.91
2018-08-03T03:11:53.670Z,18.85
2018-08-03T03:14:23.682Z,18.90
2018-08-03T03:16:52.753Z,18.87
2018-08-03T03:19:21.829Z,18.86
2018-08-03T03:21:50.959Z,18.87
2018-08-03T03:24:20.057Z,18.90
2018-08-03T03:26:49.197Z,18.91
2018-08-03T03:29:18.258Z,18.98
2018-08-03T03:31:47.330Z,18.84
2018-08-03T03:34:16.738Z,18.75
2018-08-03T03:36:45.808Z,18.63
2018-08-03T03:41:50.683Z,18.42
2018-08-03T03:44:20.702Z,18.34
2018-08-03T03:46:49.768Z,18.15
2018-08-03T03:49:18.826Z,18.13
2018-08-03T03:51:47.883Z,18.22
2018-08-03T03:56:52.729Z,18.40
2018-08-03T03:59:21.841Z,18.44
2018-08-03T04:01:50.867Z,18.53
2018-08-03T04:04:19.929Z,18.57
2018-08-03T04:09:24.796Z,18.63
2018-08-03T04:11:53.896Z,18.65
2018-08-03T04:14:24.901Z,18.65
2018-08-03T04:16:53.971Z,18.72
2018-08-03T04:19:23.133Z,18.73
2018-08-03T04:21:52.202Z,18.89
2018-08-03T04:24:21.288Z,18.94
2018-08-03T04:26:50.452Z,18.91
2018-08-03T04:29:19.521Z,18.90
2018-08-03T04:34:24.371Z,19.19
2018-08-03T04:36:53.486Z,19.42
2018-08-03T04:39:22.692Z,19.30
2018-08-03T04:41:52.675Z,19.23
2018-08-03T04:44:21.735Z,18.94
2018-08-03T04:46:50.802Z,18.92
2018-08-03T04:51:55.702Z,19.26
2018-08-03T04:54:24.767Z,19.46
2018-08-03T04:56:53.864Z,19.44
2018-08-03T04:59:22.920Z,19.33
2018-08-03T05:01:52.950Z,19.33
2018-08-03T05:04:22.398Z,19.48
2018-08-03T05:06:52.531Z,19.60
2018-08-03T05:09:22.490Z,19.72
2018-08-03T05:11:51.537Z,19.81
2018-08-03T05:14:21.665Z,19.96
2018-08-03T05:16:51.742Z,20.10
2018-08-03T05:19:20.814Z,20.21
2018-08-03T05:21:49.876Z,20.33
2018-08-03T05:24:18.993Z,20.43
2018-08-03T05:26:48.024Z,20.32
2018-08-03T05:31:57.876Z,20.49
2018-08-03T05:34:26.960Z,20.42
2018-08-03T05:36:56.033Z,20.51
2018-08-03T05:39:26.025Z,20.82
2018-08-03T05:41:55.097Z,20.96
2018-08-03T05:44:24.145Z,20.81
2018-08-03T05:46:53.221Z,20.86
2018-08-03T05:49:23.231Z,21.08
2018-08-03T05:51:52.293Z,21.28
2018-08-03T05:54:21.346Z,21.48
2018-08-03T05:57:02.370Z,21.65
2018-08-03T05:59:44.950Z,21.79
2018-08-03T06:05:05.076Z,22.08
2018-08-03T06:07:35.186Z,22.32
2018-08-03T06:10:04.267Z,22.26
2018-08-03T06:12:34.450Z,22.32
2018-08-03T06:15:03.510Z,22.45
2018-08-03T06:17:33.577Z,22.40
2018-08-03T06:20:03.753Z,22.71
2018-08-03T06:22:32.818Z,22.81
2018-08-03T06:25:01.902Z,22.83
2018-08-03T06:27:31.103Z,23.02
2018-08-03T06:30:02.161Z,22.94
2018-08-03T06:35:07.044Z,23.13
2018-08-03T06:37:36.099Z,23.31
2018-08-03T06:40:05.169Z,23.49
2018-08-03T06:45:09.989Z,23.79
2018-08-03T06:47:39.986Z,23.88
2018-08-03T06:50:09.048Z,23.86
2018-08-03T06:52:38.109Z,23.48
2018-08-03T06:55:08.091Z,23.92
2018-08-03T06:57:37.346Z,23.86
2018-08-03T07:00:06.415Z,24.08
2018-08-03T07:07:46.507Z,24.48
2018-08-03T07:10:16.516Z,24.46
2018-08-03T07:12:45.569Z,24.53
2018-08-03T07:15:14.637Z,24.44
2018-08-03T07:17:43.693Z,24.56
2018-08-03T07:20:12.834Z,24.76
2018-08-03T07:22:41.814Z,24.41
2018-08-03T07:25:11.806Z,24.38
2018-08-03T07:30:17.695Z,24.48
2018-08-03T07:32:47.757Z,24.83
2018-08-03T07:35:17.106Z,24.52
2018-08-03T07:37:46.165Z,24.52
2018-08-03T07:40:16.238Z,24.86
2018-08-03T07:42:45.321Z,25.01
2018-08-03T07:45:14.334Z,25.00
2018-08-03T07:58:07.224Z,26.09
2018-08-03T08:00:36.264Z,26.12
2018-08-03T08:03:06.317Z,26.49
2018-08-03T08:08:11.166Z,26.63
2018-08-03T08:10:40.219Z,26.94
2018-08-03T08:15:45.164Z,26.78
2018-08-03T08:18:14.210Z,26.72
2018-08-03T08:20:46.734Z,27.19
2018-08-03T08:23:16.063Z,27.75
2018-08-03T08:25:45.477Z,28.12
2018-08-03T08:28:14.570Z,28.04
2018-08-03T08:30:43.621Z,28.51
2018-08-03T08:35:48.479Z,28.32
2018-08-03T08:38:17.745Z,28.65
2018-08-03T08:40:46.828Z,28.51
2018-08-03T08:43:16.872Z,29.18
2018-08-03T08:45:45.961Z,28.40
2018-08-03T08:48:15.052Z,28.51
2018-08-03T08:50:46.191Z,28.79
2018-08-03T08:53:15.249Z,29.07
2018-08-03T08:55:44.287Z,29.99
2018-08-03T08:58:13.746Z,29.97
2018-08-03T09:00:42.830Z,30.19
2018-08-03T09:03:11.843Z,30.09
2018-08-03T09:08:16.662Z,30.21
2018-08-03T09:10:45.943Z,30.78
2018-08-03T09:13:16.995Z,31.09
2018-08-03T09:15:46.051Z,30.87
2018-08-03T09:18:16.108Z,30.47
2018-08-03T09:20:46.136Z,31.47
2018-08-03T09:23:15.225Z,32.49
2018-08-03T09:25:44.256Z,32.53
2018-08-03T09:28:13.318Z,34.78
2018-08-03T09:30:42.374Z,35.14
2018-08-03T09:33:11.450Z,35.73
2018-08-03T09:35:40.510Z,34.59
2018-08-03T09:38:09.570Z,36.11
2018-08-03T09:40:38.638Z,37.56
2018-08-03T09:45:43.514Z,37.22
2018-08-03T09:48:13.515Z,38.00
2018-08-03T09:53:18.364Z,39.17
2018-08-03T09:55:47.503Z,38.10
2018-08-03T09:58:16.562Z,38.92
2018-08-03T10:00:45.631Z,39.59
2018-08-03T10:03:14.699Z,39.38
2018-08-03T10:05:43.762Z,40.59
2018-08-03T10:08:12.851Z,42.19
2018-08-03T10:10:41.918Z,42.57
2018-08-03T10:13:10.986Z,42.26
2018-08-03T10:15:40.056Z,42.29
2018-08-03T10:18:09.098Z,42.19
2018-08-03T10:20:38.251Z,44.35
2018-08-03T10:23:07.365Z,41.09
2018-08-03T10:28:12.129Z,42.13
2018-08-03T10:30:43.300Z,43.05
2018-08-03T10:33:12.458Z,42.51
2018-08-03T10:38:17.217Z,42.22
2018-08-03T10:40:46.291Z,38.99
2018-08-03T10:43:16.050Z,37.73
2018-08-03T10:45:45.953Z,38.30
2018-08-03T10:48:15.020Z,38.73
2018-08-03T10:50:44.389Z,40.26
2018-08-03T10:53:13.525Z,40.89
2018-08-03T10:55:42.568Z,42.38
2018-08-03T10:58:11.875Z,42.73
2018-08-03T11:00:40.922Z,41.90
2018-08-03T11:03:09.969Z,41.01
2018-08-03T11:05:39.547Z,39.72
2018-08-03T11:08:09.558Z,38.65
2018-08-03T11:10:39.601Z,36.22
2018-08-03T11:13:09.021Z,36.42
2018-08-03T11:15:38.064Z,38.85
2018-08-03T11:18:07.145Z,38.65
2018-08-03T11:23:12.066Z,38.26
2018-08-03T11:25:42.051Z,39.58
2018-08-03T11:28:11.115Z,41.52
2018-08-03T11:30:40.173Z,43.81
2018-08-03T11:33:09.456Z,42.34
2018-08-03T11:35:38.549Z,40.04
2018-08-03T11:38:08.582Z,42.81
2018-08-03T11:40:37.653Z,39.93
2018-08-03T11:43:06.772Z,40.92
2018-08-03T11:45:35.824Z,40.71
2018-08-03T11:48:04.922Z,42.96
2018-08-03T11:50:34.894Z,47.43
2018-08-03T11:53:03.954Z,45.17
2018-08-03T11:55:33.008Z,42.67
2018-08-03T11:58:02.093Z,45.74
2018-08-03T12:00:35.709Z,44.77
2018-08-03T12:03:04.780Z,43.01
2018-08-03T12:05:34.824Z,43.55
2018-08-03T12:08:04.837Z,47.62
2018-08-03T12:10:33.974Z,41.50
2018-08-03T12:13:04.988Z,41.63
2018-08-03T12:15:35.010Z,38.57
2018-08-03T12:18:05.017Z,39.31
2018-08-03T12:20:34.118Z,42.57
2018-08-03T12:23:03.189Z,40.72
2018-08-03T12:25:33.244Z,43.90
2018-08-03T12:28:02.914Z,41.16
2018-08-03T12:30:32.022Z,36.68
2018-08-03T12:33:01.079Z,38.98
2018-08-03T12:35:30.323Z,39.28
2018-08-03T12:37:59.385Z,40.47
2018-08-03T12:40:28.472Z,44.33
2018-08-03T12:42:57.517Z,43.00
2018-08-03T12:45:33.837Z,38.38
2018-08-03T12:47:55.663Z,36.88
2018-08-03T12:50:25.706Z,37.32
2018-08-03T12:55:30.997Z,36.21
2018-08-03T13:00:35.912Z,38.63
2018-08-03T13:03:04.975Z,41.61
2018-08-03T13:05:34.028Z,38.61
2018-08-03T13:08:03.520Z,39.76
2018-08-03T13:10:42.290Z,39.54
2018-08-03T13:13:21.217Z,40.08
2018-08-03T13:16:02.178Z,40.34
2018-08-03T13:18:45.092Z,44.75
2018-08-03T13:21:40.766Z,47.23
2018-08-03T13:24:19.867Z,43.96
2018-08-03T13:26:56.233Z,44.92
2018-08-03T13:29:32.071Z,47.27
2018-08-03T13:32:08.483Z,43.05
2018-08-03T13:34:46.470Z,44.49
2018-08-03T13:37:24.118Z,45.78
2018-08-03T13:39:58.705Z,46.59
2018-08-03T13:42:36.052Z,46.47
2018-08-03T13:45:05.155Z,47.03
2018-08-03T13:47:34.307Z,40.81
2018-08-03T13:50:03.370Z,45.00
2018-08-03T13:55:12.494Z,41.45
2018-08-03T13:57:41.636Z,43.86
2018-08-03T14:00:10.600Z,47.06
2018-08-03T14:02:40.867Z,42.48
2018-08-03T14:05:09.950Z,42.07
2018-08-03T14:07:40.967Z,43.67
2018-08-03T14:10:12.003Z,44.84
2018-08-03T14:12:41.062Z,40.91
2018-08-03T14:15:10.140Z,38.14
2018-08-03T14:20:14.889Z,41.45
2018-08-03T14:22:43.950Z,41.86
2018-08-03T14:25:13.121Z,38.44
2018-08-03T14:27:42.427Z,35.74
2018-08-03T14:30:11.597Z,36.00
2018-08-03T14:32:40.627Z,38.25
2018-08-03T14:35:11.137Z,37.16
2018-08-03T14:40:16.936Z,38.38
2018-08-03T14:42:46.094Z,38.69
2018-08-03T14:45:15.161Z,38.42
2018-08-03T14:47:44.417Z,39.42
2018-08-03T14:50:13.495Z,39.34
2018-08-03T14:52:42.524Z,38.84
2018-08-03T14:55:11.630Z,39.12
2018-08-03T14:57:41.094Z,40.04
2018-08-03T15:00:10.154Z,40.48
2018-08-03T15:02:39.213Z,39.83
2018-08-03T15:07:45.200Z,42.10
2018-08-03T15:10:14.216Z,42.65
2018-08-03T15:12:43.407Z,42.68
2018-08-03T15:15:12.471Z,42.81
2018-08-03T15:17:41.607Z,43.44
2018-08-03T15:20:10.657Z,44.63
2018-08-03T15:22:39.719Z,44.34
2018-08-03T15:25:08.768Z,44.71
2018-08-03T15:27:37.891Z,43.60
2018-08-03T15:30:06.949Z,44.46
2018-08-03T15:32:36.961Z,46.70
2018-08-03T15:35:06.069Z,45.59
2018-08-03T15:37:35.901Z,45.60
2018-08-03T15:42:40.657Z,48.93
2018-08-03T15:45:09.722Z,46.93
2018-08-03T15:47:38.859Z,47.93
2018-08-03T15:52:43.836Z,47.25
2018-08-03T15:55:12.874Z,45.75
2018-08-03T15:57:41.941Z,45.93
2018-08-03T16:00:11.265Z,44.26
2018-08-03T16:02:40.297Z,44.87
2018-08-03T16:05:09.356Z,40.26
2018-08-03T16:07:38.797Z,42.14
2018-08-03T16:10:07.861Z,43.26
2018-08-03T16:12:36.906Z,41.46
2018-08-03T16:15:06.147Z,40.74
2018-08-03T16:17:36.215Z,39.75
2018-08-03T16:20:05.254Z,40.00
2018-08-03T16:22:34.314Z,39.46
2018-08-03T16:25:03.382Z,39.35
2018-08-03T16:27:32.428Z,39.02
2018-08-03T16:30:01.488Z,37.98
2018-08-03T16:32:30.545Z,37.34
2018-08-03T16:34:59.605Z,36.64
2018-08-03T16:37:28.691Z,35.75
2018-08-03T16:39:57.740Z,35.25
2018-08-03T16:45:02.674Z,34.50
2018-08-03T16:47:31.751Z,34.07
2018-08-03T16:50:00.809Z,33.40
2018-08-03T16:55:05.738Z,33.68
2018-08-03T16:57:35.727Z,33.41
2018-08-03T17:00:07.573Z,33.74
2018-08-03T17:02:36.655Z,33.34
2018-08-03T17:10:17.415Z,33.59
2018-08-03T17:12:46.459Z,33.42
2018-08-03T17:17:51.375Z,32.62
2018-08-03T17:22:56.230Z,32.64
2018-08-03T17:28:01.079Z,32.72
2018-08-03T17:30:30.144Z,32.85
2018-08-03T17:32:59.208Z,32.50
2018-08-03T17:38:04.133Z,32.56
2018-08-03T17:40:33.249Z,32.63
2018-08-03T17:43:02.310Z,32.55
2018-08-03T17:45:31.412Z,32.24
2018-08-03T17:48:00.438Z,31.72
2018-08-03T17:50:29.563Z,31.62
2018-08-03T17:52:59.511Z,31.79
2018-08-03T17:55:28.568Z,31.84
2018-08-03T17:57:57.646Z,31.62
2018-08-03T18:00:26.719Z,31.67
2018-08-03T18:02:56.755Z,31.89
2018-08-03T18:05:27.700Z,31.81
2018-08-03T18:07:56.776Z,31.39
2018-08-03T18:10:25.844Z,31.46
2018-08-03T18:15:32.322Z,30.73
2018-08-03T18:18:01.467Z,30.63
2018-08-03T18:20:30.524Z,30.36
2018-08-03T18:22:59.641Z,30.21
2018-08-03T18:25:29.680Z,30.07
2018-08-03T18:27:58.875Z,29.84
2018-08-03T18:33:04.662Z,29.45
2018-08-03T18:35:33.729Z,29.60
2018-08-03T18:38:03.789Z,29.29
2018-08-03T18:40:33.914Z,29.13
2018-08-03T18:43:02.960Z,28.70
2018-08-03T18:45:32.015Z,28.64
2018-08-03T18:48:01.101Z,28.66
2018-08-03T18:50:30.146Z,28.52
2018-08-03T18:52:59.383Z,28.50
2018-08-03T18:58:05.375Z,28.36
2018-08-03T19:00:34.444Z,28.37
2018-08-03T19:03:03.580Z,28.12
2018-08-03T19:08:08.488Z,28.04
2018-08-03T19:10:37.531Z,27.81
2018-08-03T19:13:06.588Z,27.69
2018-08-03T19:15:35.651Z,27.53
2018-08-03T19:18:04.719Z,27.58
2018-08-03T19:20:33.784Z,27.37
2018-08-03T19:23:02.833Z,27.22
2018-08-03T19:25:31.897Z,27.26
2018-08-03T19:28:01.936Z,27.11
2018-08-03T19:30:31.067Z,26.93
2018-08-03T19:33:00.059Z,26.82
2018-08-03T19:35:30.049Z,26.70
2018-08-03T19:37:59.105Z,26.59
2018-08-03T19:40:29.107Z,26.48
2018-08-03T19:42:59.053Z,26.38
2018-08-03T19:48:03.870Z,26.38
2018-08-03T19:50:32.924Z,26.26
2018-08-03T19:53:01.989Z,26.13
2018-08-03T19:55:32.154Z,26.05
2018-08-03T19:58:01.209Z,25.92
2018-08-03T20:00:30.274Z,25.77
2018-08-03T20:05:35.045Z,25.69
2018-08-03T20:08:04.121Z,25.57
2018-08-03T20:10:33.190Z,25.28
2018-08-03T20:13:02.255Z,25.02
2018-08-03T20:15:31.301Z,24.96
2018-08-03T20:18:00.377Z,24.72
2018-08-03T20:20:29.445Z,24.64
2018-08-03T20:22:58.510Z,24.66
2018-08-03T20:30:39.147Z,24.62
2018-08-03T20:33:09.132Z,24.57
2018-08-03T20:40:49.771Z,24.18
2018-08-03T20:43:18.834Z,23.92
2018-08-03T20:48:23.701Z,23.79
2018-08-03T20:50:52.938Z,23.62
2018-08-03T20:53:21.999Z,23.47
2018-08-03T20:55:51.053Z,23.62
2018-08-03T20:58:21.156Z,23.53
2018-08-03T21:03:25.979Z,23.51
2018-08-03T21:05:55.035Z,23.51
2018-08-03T21:08:24.101Z,23.29
2018-08-03T21:10:53.149Z,23.23
2018-08-03T21:13:22.229Z,23.29
2018-08-03T21:18:27.033Z,23.13
2018-08-03T21:20:56.188Z,23.15
2018-08-03T21:26:00.496Z,23.27
2018-08-03T21:28:29.553Z,23.16
2018-08-03T21:30:58.614Z,23.14
2018-08-03T21:36:03.413Z,22.70
2018-08-03T21:38:32.485Z,22.69
2018-08-03T21:41:01.552Z,22.43
2018-08-03T21:43:30.606Z,22.25
2018-08-03T21:45:59.672Z,22.27
2018-08-03T21:48:28.729Z,22.18
2018-08-03T21:50:57.791Z,22.09
2018-08-03T21:53:27.807Z,22.17
2018-08-03T21:55:56.986Z,22.17
2018-08-03T21:58:26.017Z,22.14
2018-08-03T22:00:55.074Z,22.24
2018-08-03T22:05:59.872Z,22.14
2018-08-03T22:11:04.725Z,21.96
2018-08-03T22:13:33.801Z,22.08
2018-08-03T22:16:02.842Z,21.96
2018-08-03T22:18:31.911Z,21.80
2018-08-03T22:21:00.960Z,21.66
2018-08-03T22:23:30.038Z,21.58
2018-08-03T22:26:00.015Z,21.57
2018-08-03T22:28:29.077Z,21.54
2018-08-03T22:30:58.172Z,21.38
2018-08-03T22:33:27.230Z,21.34
2018-08-03T22:35:56.869Z,21.45
2018-08-03T22:38:25.933Z,21.36
2018-08-03T22:40:54.987Z,21.27
2018-08-03T22:43:24.037Z,21.21
2018-08-03T22:51:04.654Z,21.39
2018-08-03T22:53:33.705Z,21.27
2018-08-03T22:56:02.776Z,20.99
2018-08-03T22:58:31.836Z,20.92
2018-08-03T23:01:00.948Z,21.10
2018-08-03T23:03:29.974Z,20.85
2018-08-03T23:08:34.903Z,21.06
2018-08-03T23:11:03.974Z,20.88
2018-08-03T23:13:33.993Z,20.71
2018-08-03T23:16:03.049Z,20.68
2018-08-03T23:18:32.109Z,20.58
2018-08-03T23:23:36.960Z,20.59
2018-08-03T23:26:06.010Z,20.55
2018-08-03T23:28:35.064Z,20.27
2018-08-03T23:31:04.142Z,20.20
2018-08-03T23:33:33.197Z,20.09
2018-08-03T23:36:02.261Z,20.12
2018-08-03T23:38:31.329Z,20.14
2018-08-03T23:41:00.412Z,19.98
2018-08-03T23:43:29.455Z,19.90
2018-08-03T23:45:58.540Z,19.93
2018-08-03T23:48:27.602Z,19.91
2018-08-03T23:50:56.669Z,20.05
2018-08-03T23:53:27.681Z,20.05
2018-08-03T23:55:56.741Z,19.95
2018-08-03T23:58:25.803Z,19.93
